Terminal Aerodrome Forecast
Issued by NWS Brownsville, TX

Home | Current Version | Previous Version | Text Only | Print | Product List | Glossary On
Versions: 1 2 3 4 5 6 7 8 9 10 11 12 13 14 15 16
218
FTUS44 KBRO 240539 CCA
TAFHRL
TAF COR
KHRL 240539Z 2406/2506 15014G19KT P6SM FEW035 SCT250
      TEMPO 2406/2408 BKN025
     FM241600 18022G29KT P6SM BKN050
     FM242200 16017G23KT P6SM SCT050
     FM250200 16014KT P6SM BKN250=

USA.gov is the U.S. government's official web portal to all federal, state and local government web resources and services.